createdAt,value
2018-08-06T00:00:58.013Z,100278.95
2018-08-06T00:03:25.088Z,100276.64
2018-08-06T00:05:52.788Z,100274.20
2018-08-06T00:08:20.405Z,100270.30
2018-08-06T00:10:48.257Z,100275.77
2018-08-06T00:13:15.829Z,100270.86
2018-08-06T00:15:43.550Z,100268.18
2018-08-06T00:18:11.261Z,100267.95
2018-08-06T00:20:38.935Z,100265.15
2018-08-06T00:23:06.506Z,100269.05
2018-08-06T00:25:34.170Z,100267.95
2018-08-06T00:28:01.838Z,100260.78
2018-08-06T00:30:29.372Z,100255.19
2018-08-06T00:32:57.064Z,100257.86
2018-08-06T00:35:24.604Z,100244.71
2018-08-06T00:37:52.255Z,100249.12
2018-08-06T00:40:20.796Z,100242.30
2018-08-06T00:42:48.796Z,100239.98
2018-08-06T00:45:17.992Z,100238.64
2018-08-06T00:47:46.024Z,100231.95
2018-08-06T00:50:13.753Z,100234.15
2018-08-06T00:52:41.325Z,100232.69
2018-08-06T00:55:11.733Z,100234.03
2018-08-06T00:57:38.923Z,100227.57
2018-08-06T01:00:06.884Z,100235.48
2018-08-06T01:02:34.043Z,100223.43
2018-08-06T01:05:01.000Z,100220.16
2018-08-06T01:07:28.663Z,100225.27
2018-08-06T01:09:56.476Z,100222.47
2018-08-06T01:12:24.057Z,100217.47
2018-08-06T01:14:51.631Z,100213.20
2018-08-06T01:17:19.624Z,100222.34
2018-08-06T01:19:47.398Z,100223.44
2018-08-06T01:22:14.919Z,100218.43
2018-08-06T01:24:42.751Z,100219.44
2018-08-06T01:27:10.370Z,100220.53
2018-08-06T01:29:37.976Z,100212.84
2018-08-06T01:32:05.645Z,100211.73
2018-08-06T01:34:33.189Z,100214.17
2018-08-06T01:37:00.749Z,100210.41
2018-08-06T01:39:28.514Z,100214.79
2018-08-06T01:41:56.106Z,100218.08
2018-08-06T01:44:23.801Z,100211.27
2018-08-06T01:46:51.595Z,100207.24
2018-08-06T01:49:19.155Z,100206.73
2018-08-06T01:51:46.738Z,100203.09
2018-08-06T01:54:14.482Z,100203.45
2018-08-06T01:56:42.024Z,100199.44
2018-08-06T01:59:09.588Z,100201.51
2018-08-06T02:01:37.272Z,100180.91
2018-08-06T02:04:05.012Z,100183.84
2018-08-06T02:06:32.574Z,100178.36
2018-08-06T02:09:00.430Z,100175.04
2018-08-06T02:11:27.988Z,100166.05
2018-08-06T02:13:55.571Z,100166.91
2018-08-06T02:16:22.720Z,100156.89
2018-08-06T02:18:50.506Z,100156.41
2018-08-06T02:21:18.160Z,100155.94
2018-08-06T02:23:45.227Z,100158.97
2018-08-06T02:26:12.796Z,100148.12
2018-08-06T02:28:39.781Z,100144.33
2018-08-06T02:31:06.952Z,100136.28
2018-08-06T02:33:33.910Z,100132.13
2018-08-06T02:36:00.830Z,100134.59
2018-08-06T02:38:28.562Z,100125.59
2018-08-06T02:40:56.148Z,100133.00
2018-08-06T02:43:23.803Z,100126.80
2018-08-06T02:45:51.542Z,100121.45
2018-08-06T02:48:19.245Z,100112.54
2018-08-06T02:50:46.870Z,100106.58
2018-08-06T02:53:14.766Z,100108.27
2018-08-06T02:55:42.347Z,100100.09
2018-08-06T02:58:09.950Z,100102.64
2018-08-06T03:00:37.659Z,100099.84
2018-08-06T03:03:05.283Z,100099.84
2018-08-06T03:05:32.854Z,100090.45
2018-08-06T03:08:00.641Z,100094.47
2018-08-06T03:10:28.222Z,100084.23
2018-08-06T03:12:55.880Z,100088.77
2018-08-06T03:15:22.996Z,100083.88
2018-08-06T03:17:50.663Z,100082.54
2018-08-06T03:20:18.509Z,100078.04
2018-08-06T03:22:46.305Z,100083.88
2018-08-06T03:25:15.062Z,100075.96
2018-08-06T03:27:43.370Z,100080.11
2018-08-06T03:30:13.074Z,100081.45
2018-08-06T03:32:40.912Z,100072.55
2018-08-06T03:35:09.601Z,100067.58
2018-08-06T03:37:37.452Z,100066.45
2018-08-06T03:40:04.488Z,100067.66
2018-08-06T03:42:32.057Z,100059.75
2018-08-06T03:44:59.880Z,100060.23
2018-08-06T03:47:27.510Z,100064.37
2018-08-06T03:49:55.034Z,100048.30
2018-08-06T03:52:22.943Z,100050.27
2018-08-06T03:54:50.550Z,100047.08
2018-08-06T03:57:18.326Z,100050.27
2018-08-06T03:59:46.098Z,100051.48
2018-08-06T04:02:13.684Z,100045.13
2018-08-06T04:04:41.202Z,100042.80
2018-08-06T04:07:08.981Z,100038.78
2018-08-06T04:09:36.551Z,100037.82
2018-08-06T04:12:04.172Z,100032.81
2018-08-06T04:14:31.969Z,100039.38
2018-08-06T04:17:00.104Z,100035.36
2018-08-06T04:19:27.652Z,100037.56
2018-08-06T04:21:55.541Z,100040.68
2018-08-06T04:24:22.520Z,100031.67
2018-08-06T04:26:49.472Z,100036.66
2018-08-06T04:29:16.590Z,100031.30
2018-08-06T04:31:43.561Z,100034.11
2018-08-06T04:34:10.524Z,100033.76
2018-08-06T04:36:37.633Z,100029.61
2018-08-06T04:39:05.639Z,100025.23
2018-08-06T04:41:33.240Z,100021.69
2018-08-06T04:44:00.926Z,100019.01
2018-08-06T04:46:27.908Z,100024.16
2018-08-06T04:48:54.862Z,100020.48
2018-08-06T04:51:22.034Z,100020.48
2018-08-06T04:53:49.171Z,100014.26
2018-08-06T04:56:16.116Z,100017.32
2018-08-06T04:58:43.257Z,100013.52
2018-08-06T05:01:10.300Z,100010.23
2018-08-06T05:03:37.249Z,100014.98
2018-08-06T05:06:04.449Z,100020.20
2018-08-06T05:08:31.382Z,100012.38
2018-08-06T05:10:58.344Z,100025.18
2018-08-06T05:13:25.343Z,100015.15
2018-08-06T05:15:52.275Z,100022.36
2018-08-06T05:18:19.225Z,100013.80
2018-08-06T05:20:46.371Z,100014.31
2018-08-06T05:23:13.491Z,100017.00
2018-08-06T05:25:40.426Z,100012.47
2018-08-06T05:28:07.772Z,100009.30
2018-08-06T05:30:34.860Z,100010.52
2018-08-06T05:33:01.890Z,100016.36
2018-08-06T05:35:29.051Z,100019.04
2018-08-06T05:37:56.796Z,100018.56
2018-08-06T05:40:23.836Z,100021.23
2018-08-06T05:42:51.043Z,100025.74
2018-08-06T05:45:18.100Z,100032.31
2018-08-06T05:47:45.149Z,100024.40
2018-08-06T05:50:13.085Z,100037.33
2018-08-06T05:52:40.192Z,100021.23
2018-08-06T05:55:08.169Z,100031.70
2018-08-06T05:57:35.363Z,100034.60
2018-08-06T06:00:02.414Z,100033.00
2018-08-06T06:02:30.174Z,100025.06
2018-08-06T06:04:58.059Z,100032.47
2018-08-06T06:07:25.717Z,100030.73
2018-08-06T06:09:53.402Z,100035.34
2018-08-06T06:12:21.244Z,100026.55
2018-08-06T06:14:48.922Z,100035.20
2018-08-06T06:17:16.570Z,100026.50
2018-08-06T06:19:44.453Z,100040.64
2018-08-06T06:22:12.142Z,100033.67
2018-08-06T06:24:40.053Z,100038.63
2018-08-06T06:27:07.867Z,100031.52
2018-08-06T06:29:35.504Z,100040.24
2018-08-06T06:32:03.129Z,100041.91
2018-08-06T06:34:31.030Z,100038.34
2018-08-06T06:36:58.609Z,100041.09
2018-08-06T06:39:26.205Z,100039.00
2018-08-06T06:41:54.021Z,100044.66
2018-08-06T06:44:21.694Z,100043.03
2018-08-06T06:46:49.283Z,100051.85
2018-08-06T06:49:17.095Z,100048.17
2018-08-06T06:51:44.659Z,100047.07
2018-08-06T06:54:13.243Z,100046.93
2018-08-06T06:56:41.013Z,100045.80
2018-08-06T06:59:08.047Z,100043.56
2018-08-06T07:01:35.744Z,100044.84
2018-08-06T07:04:03.662Z,100047.34
2018-08-06T07:06:31.426Z,100055.48
2018-08-06T07:08:59.021Z,100047.00
2018-08-06T07:11:26.869Z,100052.95
2018-08-06T07:13:54.583Z,100051.68
2018-08-06T07:16:22.195Z,100043.48
2018-08-06T07:18:50.001Z,100051.92
2018-08-06T07:21:17.784Z,100060.05
2018-08-06T07:23:45.349Z,100054.19
2018-08-06T07:26:13.379Z,100055.59
2018-08-06T07:28:40.992Z,100061.04
2018-08-06T07:31:08.608Z,100051.73
2018-08-06T07:33:36.411Z,100056.10
2018-08-06T07:36:04.251Z,100064.23
2018-08-06T07:38:31.956Z,100063.19
2018-08-06T07:40:59.836Z,100060.80
2018-08-06T07:43:27.573Z,100060.57
2018-08-06T07:45:55.189Z,100061.34
2018-08-06T07:48:22.891Z,100076.23
2018-08-06T07:50:50.498Z,100070.86
2018-08-06T07:53:18.190Z,100081.81
2018-08-06T07:55:45.954Z,100085.22
2018-08-06T07:58:13.572Z,100087.42
2018-08-06T08:00:41.160Z,100095.07
2018-08-06T08:03:09.110Z,100096.85
2018-08-06T08:05:36.836Z,100091.91
2018-08-06T08:08:04.554Z,100102.09
2018-08-06T08:10:32.386Z,100106.70
2018-08-06T08:13:00.086Z,100113.72
2018-08-06T08:15:27.827Z,100119.02
2018-08-06T08:17:56.746Z,100106.62
2018-08-06T08:20:24.799Z,100115.89
2018-08-06T08:22:52.464Z,100127.23
2018-08-06T08:25:21.246Z,100124.55
2018-08-06T08:27:49.151Z,100121.33
2018-08-06T08:30:17.442Z,100120.56
2018-08-06T08:32:45.425Z,100124.65
2018-08-06T08:35:13.800Z,100130.66
2018-08-06T08:37:41.617Z,100130.60
2018-08-06T08:40:11.609Z,100131.56
2018-08-06T08:42:39.298Z,100123.92
2018-08-06T08:45:09.442Z,100147.71
2018-08-06T08:47:37.306Z,100140.34
2018-08-06T08:50:06.089Z,100148.91
2018-08-06T08:52:33.777Z,100154.64
2018-08-06T08:55:01.593Z,100154.78
2018-08-06T08:57:29.244Z,100171.80
2018-08-06T08:59:56.829Z,100182.87
2018-08-06T09:02:24.525Z,100192.78
2018-08-06T09:04:52.370Z,100195.08
2018-08-06T09:07:20.077Z,100198.50
2018-08-06T09:09:47.904Z,100199.27
2018-08-06T09:12:15.583Z,100200.76
2018-08-06T09:14:43.175Z,100200.27
2018-08-06T09:17:10.982Z,100211.73
2018-08-06T09:19:38.587Z,100204.37
2018-08-06T09:22:06.477Z,100214.00
2018-08-06T09:24:34.235Z,100211.88
2018-08-06T09:27:01.862Z,100221.30
2018-08-06T09:29:29.673Z,100229.38
2018-08-06T09:31:57.584Z,100237.46
2018-08-06T09:34:25.293Z,100238.47
2018-08-06T09:36:52.923Z,100234.77
2018-08-06T09:39:20.799Z,100241.84
2018-08-06T09:41:48.417Z,100240.73
2018-08-06T09:44:16.072Z,100260.55
2018-08-06T09:46:43.944Z,100260.93
2018-08-06T09:49:11.582Z,100268.73
2018-08-06T09:51:39.240Z,100260.84
2018-08-06T09:54:07.564Z,100271.53
2018-08-06T09:56:35.205Z,100264.31
2018-08-06T09:59:03.951Z,100275.89
2018-08-06T10:01:37.079Z,100271.73
2018-08-06T10:04:04.922Z,100278.97
2018-08-06T10:06:32.689Z,100276.84
2018-08-06T10:09:00.161Z,100280.91
2018-08-06T10:11:27.991Z,100284.42
2018-08-06T10:13:55.627Z,100294.54
2018-08-06T10:16:23.384Z,100291.34
2018-08-06T10:18:51.380Z,100296.32
2018-08-06T10:21:18.936Z,100297.37
2018-08-06T10:23:46.595Z,100300.78
2018-08-06T10:26:14.225Z,100299.42
2018-08-06T10:28:41.801Z,100298.87
2018-08-06T10:31:09.602Z,100316.23
2018-08-06T10:33:37.492Z,100315.34
2018-08-06T10:36:05.158Z,100318.49
2018-08-06T10:38:32.817Z,100318.27
2018-08-06T10:41:00.556Z,100326.03
2018-08-06T10:43:28.185Z,100325.55
2018-08-06T10:45:55.815Z,100311.56
2018-08-06T10:48:23.751Z,100335.89
2018-08-06T10:50:51.414Z,100342.23
2018-08-06T10:53:19.096Z,100338.87
2018-08-06T10:55:46.895Z,100337.35
2018-08-06T10:58:14.572Z,100331.37
2018-08-06T11:00:42.434Z,100343.44
2018-08-06T11:03:10.194Z,100334.59
2018-08-06T11:05:37.870Z,100344.72
2018-08-06T11:08:05.520Z,100346.66
2018-08-06T11:10:33.351Z,100360.11
2018-08-06T11:13:00.982Z,100356.64
2018-08-06T11:15:28.639Z,100357.11
2018-08-06T11:17:56.625Z,100364.19
2018-08-06T11:20:24.404Z,100366.05
2018-08-06T11:22:52.168Z,100368.67
2018-08-06T11:25:21.033Z,100372.45
2018-08-06T11:27:48.884Z,100375.05
2018-08-06T11:30:18.305Z,100372.06
2018-08-06T11:32:46.800Z,100378.89
2018-08-06T11:35:14.938Z,100397.11
2018-08-06T11:37:42.623Z,100390.17
2018-08-06T11:40:11.400Z,100393.70
2018-08-06T11:42:39.674Z,100392.02
2018-08-06T11:45:10.129Z,100400.48
2018-08-06T11:47:37.865Z,100403.89
2018-08-06T11:50:05.983Z,100405.08
2018-08-06T11:52:33.600Z,100414.90
2018-08-06T11:55:01.374Z,100418.44
2018-08-06T11:57:29.028Z,100417.44
2018-08-06T11:59:56.673Z,100429.52
2018-08-06T12:02:24.622Z,100416.19
2018-08-06T12:04:52.278Z,100411.66
2018-08-06T12:07:20.088Z,100413.58
2018-08-06T12:09:47.900Z,100418.83
2018-08-06T12:12:15.574Z,100440.55
2018-08-06T12:14:43.235Z,100427.00
2018-08-06T12:17:11.177Z,100428.02
2018-08-06T12:19:38.769Z,100431.22
2018-08-06T12:22:06.479Z,100434.27
2018-08-06T12:24:34.430Z,100437.52
2018-08-06T12:27:02.017Z,100439.03
2018-08-06T12:29:29.663Z,100441.22
2018-08-06T12:31:57.731Z,100448.36
2018-08-06T12:34:25.476Z,100458.86
2018-08-06T12:36:53.003Z,100465.32
2018-08-06T12:39:20.874Z,100464.96
2018-08-06T12:41:48.546Z,100472.79
2018-08-06T12:44:16.206Z,100471.09
2018-08-06T12:46:44.274Z,100470.60
2018-08-06T12:49:11.959Z,100472.66
2018-08-06T12:51:39.729Z,100471.63
2018-08-06T12:54:08.045Z,100466.69
2018-08-06T12:56:35.672Z,100463.63
2018-08-06T12:59:03.402Z,100472.64
2018-08-06T13:01:31.320Z,100484.20
2018-08-06T13:03:59.032Z,100496.45
2018-08-06T13:06:26.720Z,100495.21
2018-08-06T13:08:54.556Z,100498.79
2018-08-06T13:11:22.152Z,100500.51
2018-08-06T13:13:49.819Z,100504.39
2018-08-06T13:16:17.791Z,100502.36
2018-08-06T13:18:45.427Z,100502.20
2018-08-06T13:21:13.099Z,100512.53
2018-08-06T13:23:40.984Z,100499.28
2018-08-06T13:26:08.710Z,100503.54
2018-08-06T13:28:36.381Z,100506.61
2018-08-06T13:31:04.168Z,100509.66
2018-08-06T13:33:31.804Z,100503.05
2018-08-06T13:35:59.587Z,100515.28
2018-08-06T13:38:27.471Z,100527.16
2018-08-06T13:40:55.194Z,100526.81
2018-08-06T13:43:22.810Z,100530.03
2018-08-06T13:45:50.577Z,100547.65
2018-08-06T13:48:18.316Z,100553.03
2018-08-06T13:50:45.999Z,100565.14
2018-08-06T13:53:16.889Z,100559.33
2018-08-06T13:55:44.614Z,100556.24
2018-08-06T13:58:12.309Z,100554.19
2018-08-06T14:00:40.243Z,100554.36
2018-08-06T14:03:07.952Z,100562.37
2018-08-06T14:05:35.632Z,100556.95
2018-08-06T14:08:04.144Z,100567.52
2018-08-06T14:10:31.835Z,100572.45
2018-08-06T14:12:59.429Z,100565.83
2018-08-06T14:15:27.250Z,100575.98
2018-08-06T14:17:54.846Z,100582.77
2018-08-06T14:20:22.506Z,100579.36
2018-08-06T14:22:50.391Z,100584.28
2018-08-06T14:25:18.024Z,100586.13
2018-08-06T14:27:45.695Z,100582.39
2018-08-06T14:30:14.650Z,100577.09
2018-08-06T14:32:43.187Z,100586.05
2018-08-06T14:35:11.164Z,100586.73
2018-08-06T14:37:38.989Z,100586.89
2018-08-06T14:40:13.090Z,100593.31
2018-08-06T14:42:41.140Z,100595.20
2018-08-06T14:45:09.598Z,100612.13
2018-08-06T14:47:37.594Z,100623.78
2018-08-06T14:50:07.467Z,100626.97
2018-08-06T14:52:35.193Z,100632.64
2018-08-06T14:55:02.927Z,100637.98
2018-08-06T14:57:35.353Z,100641.11
2018-08-06T15:00:04.960Z,100641.53
2018-08-06T15:02:32.873Z,100643.34
2018-08-06T15:05:00.503Z,100652.73
2018-08-06T15:07:28.164Z,100644.37
2018-08-06T15:09:55.989Z,100647.36
2018-08-06T15:12:23.600Z,100647.12
2018-08-06T15:14:51.215Z,100655.52
2018-08-06T15:17:19.105Z,100653.92
2018-08-06T15:19:46.828Z,100657.09
2018-08-06T15:22:14.461Z,100655.17
2018-08-06T15:24:42.353Z,100645.86
2018-08-06T15:27:10.019Z,100651.27
2018-08-06T15:29:37.701Z,100642.59
2018-08-06T15:32:05.659Z,100651.58
2018-08-06T15:34:33.238Z,100638.75
2018-08-06T15:37:01.024Z,100642.69
2018-08-06T15:39:29.192Z,100644.63
2018-08-06T15:41:56.825Z,100636.41
2018-08-06T15:44:24.455Z,100636.59
2018-08-06T15:46:52.304Z,100636.28
2018-08-06T15:49:20.015Z,100638.22
2018-08-06T15:51:47.667Z,100631.69
2018-08-06T15:54:15.456Z,100637.34
2018-08-06T15:56:43.189Z,100643.13
2018-08-06T15:59:10.801Z,100637.08
2018-08-06T16:01:38.563Z,100638.19
2018-08-06T16:04:06.255Z,100637.59
2018-08-06T16:06:33.905Z,100635.27
2018-08-06T16:09:01.745Z,100640.36
2018-08-06T16:11:29.418Z,100639.98
2018-08-06T16:13:57.041Z,100642.64
2018-08-06T16:16:24.888Z,100642.47
2018-08-06T16:18:52.555Z,100653.63
2018-08-06T16:21:20.188Z,100651.56
2018-08-06T16:23:47.933Z,100655.62
2018-08-06T16:26:15.600Z,100656.64
2018-08-06T16:28:43.335Z,100657.30
2018-08-06T16:31:11.164Z,100658.81
2018-08-06T16:33:38.822Z,100663.67
2018-08-06T16:36:06.642Z,100664.86
2018-08-06T16:38:34.437Z,100659.75
2018-08-06T16:41:02.199Z,100665.48
2018-08-06T16:43:29.868Z,100664.77
2018-08-06T16:45:57.599Z,100674.25
2018-08-06T16:48:25.413Z,100668.13
2018-08-06T16:50:53.129Z,100674.72
2018-08-06T16:53:20.991Z,100670.47
2018-08-06T16:55:48.930Z,100673.67
2018-08-06T16:58:16.787Z,100673.18
2018-08-06T17:00:51.240Z,100675.36
2018-08-06T17:03:18.825Z,100678.94
2018-08-06T17:05:46.412Z,100679.27
2018-08-06T17:08:14.420Z,100682.35
2018-08-06T17:10:42.230Z,100673.86
2018-08-06T17:13:09.867Z,100676.94
2018-08-06T17:15:37.845Z,100678.29
2018-08-06T17:18:05.537Z,100677.77
2018-08-06T17:20:33.291Z,100678.13
2018-08-06T17:23:01.287Z,100683.18
2018-08-06T17:25:29.099Z,100686.41
2018-08-06T17:27:56.794Z,100683.34
2018-08-06T17:30:24.557Z,100687.06
2018-08-06T17:32:52.296Z,100688.08
2018-08-06T17:35:20.030Z,100692.64
2018-08-06T17:37:48.364Z,100691.28
2018-08-06T17:40:17.507Z,100690.94
2018-08-06T17:42:45.623Z,100684.66
2018-08-06T17:45:16.469Z,100691.62
2018-08-06T17:47:44.363Z,100696.39
2018-08-06T17:50:14.649Z,100693.68
2018-08-06T17:52:50.013Z,100697.74
2018-08-06T17:55:18.796Z,100699.59
2018-08-06T17:57:46.812Z,100702.14
2018-08-06T18:00:15.033Z,100699.96
2018-08-06T18:02:42.718Z,100705.53
2018-08-06T18:05:12.694Z,100706.18
2018-08-06T18:07:40.840Z,100713.59
2018-08-06T18:10:10.053Z,100714.43
2018-08-06T18:12:37.721Z,100712.70
2018-08-06T18:15:06.009Z,100717.08
2018-08-06T18:17:33.792Z,100716.18
2018-08-06T18:20:01.587Z,100720.55
2018-08-06T18:22:29.440Z,100721.19
2018-08-06T18:24:57.209Z,100726.76
2018-08-06T18:27:25.033Z,100724.87
2018-08-06T18:29:52.831Z,100728.23
2018-08-06T18:32:20.571Z,100733.45
2018-08-06T18:34:48.336Z,100734.25
2018-08-06T18:37:16.324Z,100736.40
2018-08-06T18:39:44.018Z,100738.20
2018-08-06T18:42:11.793Z,100731.89
2018-08-06T18:44:39.941Z,100732.19
2018-08-06T18:47:07.662Z,100731.10
2018-08-06T18:49:35.387Z,100730.05
2018-08-06T18:52:03.560Z,100731.85
2018-08-06T18:54:32.031Z,100738.43
2018-08-06T18:56:59.708Z,100742.78
2018-08-06T18:59:27.760Z,100741.73
2018-08-06T19:01:55.386Z,100742.37
2018-08-06T19:04:23.107Z,100741.80
2018-08-06T19:06:50.917Z,100748.38
2018-08-06T19:09:18.983Z,100748.67
2018-08-06T19:11:47.039Z,100746.75
2018-08-06T19:14:21.330Z,100746.90
2018-08-06T19:16:50.258Z,100747.68
2018-08-06T19:19:21.847Z,100752.55
2018-08-06T19:21:50.136Z,100761.30
2018-08-06T19:24:23.537Z,100765.02
2018-08-06T19:26:51.366Z,100764.11
2018-08-06T19:29:18.998Z,100763.88
2018-08-06T19:31:46.692Z,100763.34
2018-08-06T19:34:14.645Z,100762.63
2018-08-06T19:36:47.906Z,100759.05
2018-08-06T19:39:15.761Z,100767.12
2018-08-06T19:41:43.557Z,100768.77
2018-08-06T19:44:11.167Z,100768.53
2018-08-06T19:46:39.293Z,100772.39
2018-08-06T19:49:12.727Z,100772.39
2018-08-06T19:51:40.583Z,100773.69
2018-08-06T19:54:08.323Z,100776.02
2018-08-06T19:56:36.055Z,100776.83
2018-08-06T19:59:03.893Z,100784.70
2018-08-06T20:01:31.561Z,100781.31
2018-08-06T20:03:59.192Z,100781.08
2018-08-06T20:06:27.106Z,100783.05
2018-08-06T20:08:54.793Z,100786.39
2018-08-06T20:11:22.533Z,100791.22
2018-08-06T20:13:50.408Z,100781.55
2018-08-06T20:16:18.065Z,100789.29
2018-08-06T20:18:45.740Z,100788.08
2018-08-06T20:21:13.434Z,100791.45
2018-08-06T20:23:41.102Z,100792.08
2018-08-06T20:26:08.662Z,100794.20
2018-08-06T20:28:36.416Z,100803.94
2018-08-06T20:31:04.089Z,100799.83
2018-08-06T20:33:31.770Z,100796.91
2018-08-06T20:35:59.587Z,100797.69
2018-08-06T20:38:27.248Z,100798.17
2018-08-06T20:40:54.902Z,100789.72
2018-08-06T20:43:22.569Z,100789.48
2018-08-06T20:45:50.263Z,100789.63
2018-08-06T20:48:18.052Z,100787.06
2018-08-06T20:50:45.788Z,100792.75
2018-08-06T20:53:13.371Z,100792.89
2018-08-06T20:55:40.999Z,100795.24
2018-08-06T20:58:08.801Z,100800.06
2018-08-06T21:00:36.433Z,100802.55
2018-08-06T21:03:04.286Z,100806.55
2018-08-06T21:05:31.981Z,100807.66
2018-08-06T21:07:59.651Z,100809.80
2018-08-06T21:10:27.377Z,100807.00
2018-08-06T21:12:55.119Z,100805.06
2018-08-06T21:15:22.834Z,100803.50
2018-08-06T21:17:50.429Z,100800.59
2018-08-06T21:20:18.870Z,100806.27
2018-08-06T21:22:47.639Z,100810.08
2018-08-06T21:25:15.485Z,100810.22
2018-08-06T21:27:44.317Z,100813.19
2018-08-06T21:30:14.752Z,100808.93
2018-08-06T21:32:45.584Z,100811.91
2018-08-06T21:35:13.418Z,100812.14
2018-08-06T21:37:41.954Z,100818.16
2018-08-06T21:40:09.753Z,100817.61
2018-08-06T21:42:37.615Z,100815.66
2018-08-06T21:45:05.429Z,100825.13
2018-08-06T21:47:33.171Z,100819.52
2018-08-06T21:50:01.027Z,100827.02
2018-08-06T21:52:28.722Z,100829.64
2018-08-06T21:54:56.558Z,100825.87
2018-08-06T21:57:24.153Z,100827.48
2018-08-06T21:59:51.753Z,100829.83
2018-08-06T22:02:19.663Z,100829.59
2018-08-06T22:04:47.599Z,100839.30
2018-08-06T22:07:15.322Z,100836.00
2018-08-06T22:09:43.105Z,100837.62
2018-08-06T22:12:10.785Z,100839.23
2018-08-06T22:14:38.425Z,100839.63
2018-08-06T22:17:06.436Z,100840.41
2018-08-06T22:19:34.109Z,100844.72
2018-08-06T22:22:01.807Z,100842.77
2018-08-06T22:24:29.544Z,100845.38
2018-08-06T22:26:57.271Z,100846.13
2018-08-06T22:29:25.024Z,100847.36
2018-08-06T22:31:52.960Z,100847.27
2018-08-06T22:34:20.772Z,100849.88
2018-08-06T22:36:48.370Z,100856.48
2018-08-06T22:39:16.057Z,100849.80
2018-08-06T22:41:43.702Z,100848.80
2018-08-06T22:44:11.318Z,100851.88
2018-08-06T22:46:38.975Z,100860.36
2018-08-06T22:49:06.642Z,100852.41
2018-08-06T22:51:34.470Z,100854.27
2018-08-06T22:54:02.246Z,100852.34
2018-08-06T22:56:29.953Z,100855.90
2018-08-06T22:58:57.563Z,100859.45
2018-08-06T23:01:25.470Z,100856.53
2018-08-06T23:03:53.167Z,100856.41
2018-08-06T23:06:20.841Z,100855.95
2018-08-06T23:08:48.973Z,100850.95
2018-08-06T23:11:16.672Z,100845.94
2018-08-06T23:13:44.328Z,100853.05
2018-08-06T23:16:12.276Z,100853.30
2018-08-06T23:18:39.902Z,100858.67
2018-08-06T23:21:07.494Z,100847.06
2018-08-06T23:23:35.322Z,100855.03
2018-08-06T23:26:03.034Z,100858.45
2018-08-06T23:28:30.668Z,100855.66
2018-08-06T23:30:58.555Z,100860.30
2018-08-06T23:33:26.163Z,100853.94
2018-08-06T23:35:53.815Z,100859.17
2018-08-06T23:38:21.833Z,100865.77
2018-08-06T23:40:49.406Z,100866.13
2018-08-06T23:43:17.100Z,100865.52
2018-08-06T23:45:44.753Z,100864.53
2018-08-06T23:48:12.330Z,100868.81
2018-08-06T23:50:40.007Z,100865.41
2018-08-06T23:53:08.184Z,100870.16
2018-08-06T23:55:35.855Z,100874.09
2018-08-06T23:58:03.461Z,100873.34
